El Tepual Airport
SCTE : rendu visible

Aérodrome :











RETROUVEZ-NOUS SUR...

 
LOGIN :

S'inscrire | Disclaimer

   EN    FR    IT 

 









Légende :    VFR   VFR Marginal   IFR   IFR Intensif   IFR Très Intensif
Visi : 
Plafond : 
>= 8 km
>= 3000ft
5 à 8 km
1000 à 3000 ft
1500m à 5 km
500 à 1000 ft
800 à 1500m
200 à 500 ft
< 800m
< 200 ft
Symboles :   Orages  Brouillard  Fortes neiges  Fortes précipitations  Vent > 20 kt






- Altitude de l'aérodrome : 294 ft
- Code IATA : PMC


SCTE - El Tepual

DERNIER METAR :
  • 090700Z 21003KT 120V260 6000 BKN008 10/10 Q1015 NOSIG

METARs EXPIRÉS :
  • 090600Z VRB02KT 9999 FEW004 10/10 Q1015 NOSIG
  • 090500Z 23004KT 180V260 9999 FEW004 11/10 Q1014 NOSIG

TAF TAF SCTE
Valide du 09 à 06h jusqu'au 10 à 06h UTC


090459Z 0906/1006 VRB02KT 0400 FG OVC001 TN05/0912Z TX18/0919Z
BECMG 0913/0915 9999 NSW BKN010
BECMG 0920/0922 BKN030



MET'MAP, la Météo Aéronautique d'un coup d'oeil ! - Copyright ORBIFLY Décembre 2007 - Disclaimer

ORBIFLY MET'MAP TEAM :

Programmation & Développement : Alexandra Zaïnal
Sur une idée originale de : Baudouin d'Aumeries
Assistance à la programmation : Marc-Olivier Méhu
Soutien technique & logistique : Manuel Goepfert

Contact : metmap@orbifly.com




SOURCES & CREDITS :

   NOAA       Earth
Advisory